地図

経路データ

SID SEASON NUMBER BASIN SUBBASIN NAME ISO_TIME NATURE LAT LON WMO_WIND WMO_PRES WMO_AGENCY TRACK_TYPE DIST2LAND LANDFALL IFLAG USA_AGENCY USA_ATCF_ID USA_LAT USA_LON USA_RECORD USA_STATUS USA_WIND USA_PRES USA_SSHS USA_R34_NE USA_R34_SE USA_R34_SW USA_R34_NW USA_R50_NE USA_R50_SE USA_R50_SW USA_R50_NW USA_R64_NE USA_R64_SE USA_R64_SW USA_R64_NW USA_POCI USA_ROCI USA_RMW USA_EYE TOKYO_LAT TOKYO_LON TOKYO_GRADE TOKYO_WIND TOKYO_PRES TOKYO_R50_DIR TOKYO_R50_LONG TOKYO_R50_SHORT TOKYO_R30_DIR TOKYO_R30_LONG TOKYO_R30_SHORT TOKYO_LAND CMA_LAT CMA_LON CMA_CAT CMA_WIND CMA_PRES HKO_LAT HKO_LON HKO_CAT HKO_WIND HKO_PRES NEWDELHI_LAT NEWDELHI_LON NEWDELHI_GRADE NEWDELHI_WIND NEWDELHI_PRES NEWDELHI_CI NEWDELHI_DP NEWDELHI_POCI REUNION_LAT REUNION_LON REUNION_TYPE REUNION_WIND REUNION_PRES REUNION_TNUM REUNION_CI REUNION_RMW REUNION_R34_NE REUNION_R34_SE REUNION_R34_SW REUNION_R34_NW REUNION_R50_NE REUNION_R50_SE REUNION_R50_SW REUNION_R50_NW REUNION_R64_NE REUNION_R64_SE REUNION_R64_SW REUNION_R64_NW BOM_LAT BOM_LON BOM_TYPE BOM_WIND BOM_PRES BOM_TNUM BOM_CI BOM_RMW BOM_R34_NE BOM_R34_SE BOM_R34_SW BOM_R34_NW BOM_R50_NE BOM_R50_SE BOM_R50_SW BOM_R50_NW BOM_R64_NE BOM_R64_SE BOM_R64_SW BOM_R64_NW BOM_ROCI BOM_POCI BOM_EYE BOM_POS_METHOD BOM_PRES_METHOD NADI_LAT NADI_LON NADI_CAT NADI_WIND NADI_PRES WELLINGTON_LAT WELLINGTON_LON WELLINGTON_WIND WELLINGTON_PRES DS824_LAT DS824_LON DS824_STAGE DS824_WIND DS824_PRES TD9636_LAT TD9636_LON TD9636_STAGE TD9636_WIND TD9636_PRES TD9635_LAT TD9635_LON TD9635_WIND TD9635_PRES TD9635_ROCI NEUMANN_LAT NEUMANN_LON NEUMANN_CLASS NEUMANN_WIND NEUMANN_PRES MLC_LAT MLC_LON MLC_CLASS MLC_WIND MLC_PRES USA_GUST BOM_GUST BOM_GUST_PER REUNION_GUST REUNION_GUST_PER USA_SEAHGT USA_SEARAD_NE USA_SEARAD_SE USA_SEARAD_SW USA_SEARAD_NW STORM_SPEED STORM_DIR
1984217N14264 1984 54 EP MM ISELLE 1984-08-03 18:00:00 TS 14.0000 -96.4000 30 hurdat_epa main 180 179 O_________O___ hurdat_epa EP091984 14.0000 -96.4000 TD 30 -1 14.0000 -96.4000 1 30 8 277
1984217N14264 1984 54 EP MM ISELLE 1984-08-03 21:00:00 TS 14.0504 -96.8098 main 169 169 P_________P___ EP091984 14.0502 -96.8125 TD 30 -1 14.0510 -96.8017 1 30 8 277
1984217N14264 1984 54 EP MM ISELLE 1984-08-04 00:00:00 TS 14.1000 -97.2000 30 hurdat_epa main 179 179 O_________O___ hurdat_epa EP091984 14.1000 -97.2000 TD 30 -1 14.1000 -97.2000 1 30 7 278
1984217N14264 1984 54 EP MM ISELLE 1984-08-04 03:00:00 TS 14.1490 -97.5604 main 198 188 P_________P___ EP091984 14.1499 -97.5500 TD 30 -1 14.1465 -97.5917 1 30 7 278
1984217N14264 1984 54 EP MM ISELLE 1984-08-04 06:00:00 TS 14.1983 -97.9185 30 hurdat_epa main 201 201 O_________P___ hurdat_epa EP091984 14.2000 -97.9000 TD 30 -1 14.1931 -97.9740 1 30 7 278
1984217N14264 1984 54 EP MM ISELLE 1984-08-04 09:00:00 TS 14.2483 -98.3167 main 208 197 P_________P___ EP091984 14.2500 -98.3075 TD 30 -1 14.2431 -98.3443 1 30 8 278
1984217N14264 1984 54 EP MM ISELLE 1984-08-04 12:00:00 TS 14.3000 -98.7000 30 hurdat_epa main 213 213 O_________O___ hurdat_epa EP091984 14.3000 -98.7000 TD 30 -1 14.3000 -98.7000 1 30 7 278
1984217N14264 1984 54 EP MM ISELLE 1984-08-04 15:00:00 TS 14.3476 -99.0135 main 227 216 P_________P___ EP091984 14.3424 -99.0076 TD 35 0 14.3634 -99.0313 1 32 6 280
1984217N14264 1984 54 EP MM ISELLE 1984-08-04 18:00:00 TS 14.4086 -99.3126 40 hurdat_epa main 225 223 O_________P___ hurdat_epa EP091984 14.4000 -99.3000 TS 40 0 14.4346 -99.3502 1 35 6 284
1984217N14264 1984 54 EP MM ISELLE 1984-08-04 21:00:00 TS 14.4977 -99.6491 main 228 228 P_________P___ EP091984 14.4925 -99.6425 TS 40 0 14.5134 -99.6689 1 37 7 286
1984217N14264 1984 54 EP MM ISELLE 1984-08-05 00:00:00 TS 14.6000 -100.000 40 hurdat_epa main 237 230 O_________O___ hurdat_epa EP091984 14.6000 -100.000 TS 40 0 14.6000 -100.000 2 40 7 286
1984217N14264 1984 54 EP MM ISELLE 1984-08-05 03:00:00 TS 14.6920 -100.342 main 232 232 P_________P___ EP091984 14.6999 -100.343 TS 40 0 14.6681 -100.341 2 42 7 285
1984217N14264 1984 54 EP MM ISELLE 1984-08-05 06:00:00 TS 14.7867 -100.700 40 hurdat_epa main 238 238 O_________P___ hurdat_epa EP091984 14.8000 -100.700 TS 40 0 14.7470 -100.698 2 45 7 285
1984217N14264 1984 54 EP MM ISELLE 1984-08-05 09:00:00 TS 14.8768 -101.079 main 251 251 P_________P___ EP091984 14.8849 -101.078 TS 45 0 14.8524 -101.082 2 47 8 285
1984217N14264 1984 54 EP MM ISELLE 1984-08-05 12:00:00 TS 15.0000 -101.500 50 hurdat_epa main 257 250 O_________O___ hurdat_epa EP091984 15.0000 -101.500 TS 50 0 15.0000 -101.500 2 50 9 289
1984217N14264 1984 54 EP MM ISELLE 1984-08-05 15:00:00 TS 15.1770 -101.980 main 253 252 P_________P___ EP091984 15.1700 -101.985 TS 52 0 15.1981 -101.966 2 52 10 293
1984217N14264 1984 54 EP MM ISELLE 1984-08-05 18:00:00 TS 15.4097 -102.491 55 hurdat_epa main 259 254 O_________P___ hurdat_epa EP091984 15.4000 -102.500 TS 55 0 15.4387 -102.466 2 55 11 298
1984217N14264 1984 54 EP MM ISELLE 1984-08-05 21:00:00 TS 15.6912 -102.996 main 257 239 P_________P___ EP091984 15.6849 -103.000 TS 57 0 15.7100 -102.983 2 57 11 301
1984217N14264 1984 54 EP MM ISELLE 1984-08-06 00:00:00 TS 16.0000 -103.500 60 hurdat_epa main 243 225 O_________O___ hurdat_epa EP091984 16.0000 -103.500 TS 60 0 16.0000 -103.500 2 60 12 304
1984217N14264 1984 54 EP MM ISELLE 1984-08-06 03:00:00 TS 16.3292 -103.992 main 228 212 P_________P___ EP091984 16.3298 -103.992 TS 62 0 16.3275 -103.992 2 62 11 302
1984217N14264 1984 54 EP MM ISELLE 1984-08-06 06:00:00 TS 16.6000 -104.500 65 hurdat_epa main 217 217 O_________O___ hurdat_epa EP091984 16.6000 -104.500 HU 65 1 16.6000 -104.500 3 65 11 292
1984217N14264 1984 54 EP MM ISELLE 1984-08-06 09:00:00 TS 16.7304 -105.030 main 239 239 P_________P___ EP091984 16.7298 -105.028 HU 65 1 16.7324 -105.035 3 65 11 281
1984217N14264 1984 54 EP MM ISELLE 1984-08-06 12:00:00 TS 16.8000 -105.600 65 hurdat_epa main 278 278 O_________O___ hurdat_epa EP091984 16.8000 -105.600 HU 65 1 16.8000 -105.600 4 65 12 278
1984217N14264 1984 54 EP MM ISELLE 1984-08-06 15:00:00 TS 16.8991 -106.231 main 296 296 P_________P___ EP091984 16.9000 -106.243 HU 70 1 16.8964 -106.196 4 67 12 279
1984217N14264 1984 54 EP MM ISELLE 1984-08-06 18:00:00 TS 16.9982 -106.880 75 hurdat_epa main 331 331 O_________P___ hurdat_epa EP091984 17.0000 -106.900 HU 75 1 16.9929 -106.820 4 70 12 279
1984217N14264 1984 54 EP MM ISELLE 1984-08-06 21:00:00 TS 17.0981 -107.495 main 368 368 P_________P___ EP091984 17.0998 -107.508 HU 75 1 17.0929 -107.459 4 72 12 280
1984217N14264 1984 54 EP MM ISELLE 1984-08-07 00:00:00 TS 17.2000 -108.100 75 hurdat_epa main 406 406 O_________O___ hurdat_epa EP091984 17.2000 -108.100 HU 75 1 17.2000 -108.100 4 75 12 280
1984217N14264 1984 54 EP MM ISELLE 1984-08-07 03:00:00 TS 17.3005 -108.701 main 447 447 P_________P___ EP091984 17.2923 -108.693 HU 75 1 17.3254 -108.725 4 75 12 280
1984217N14264 1984 54 EP MM ISELLE 1984-08-07 06:00:00 TS 17.4142 -109.312 75 hurdat_epa main 493 493 O_________P___ hurdat_epa EP091984 17.4000 -109.300 HU 75 1 17.4567 -109.350 4 75 12 282
1984217N14264 1984 54 EP MM ISELLE 1984-08-07 09:00:00 TS 17.5585 -109.945 main 535 535 P_________P___ EP091984 17.5498 -109.935 HU 75 1 17.5847 -109.975 4 75 13 283
1984217N14264 1984 54 EP MM ISELLE 1984-08-07 12:00:00 TS 17.7000 -110.600 75 hurdat_epa main 584 578 O_________O___ hurdat_epa EP091984 17.7000 -110.600 HU 75 1 17.7000 -110.600 4 75 13 281
1984217N14264 1984 54 EP MM ISELLE 1984-08-07 15:00:00 TS 17.8097 -111.301 main 586 583 P_________P___ EP091984 17.8151 -111.315 HU 75 1 17.7935 -111.258 4 76 13 278
1984217N14264 1984 54 EP MM ISELLE 1984-08-07 18:00:00 TS 17.8932 -111.978 75 hurdat_epa main 596 596 O_________P___ hurdat_epa EP091984 17.9000 -112.000 HU 75 1 17.8727 -111.910 4 77 12 277
1984217N14264 1984 54 EP MM ISELLE 1984-08-07 21:00:00 TS 17.9531 -112.574 main 611 611 P_________P___ EP091984 17.9573 -112.588 HU 77 1 17.9405 -112.533 4 78 11 276
1984217N14264 1984 54 EP MM ISELLE 1984-08-08 00:00:00 TS 18.0000 -113.100 80 hurdat_epa main 636 636 O_________O___ hurdat_epa EP091984 18.0000 -113.100 HU 80 1 18.0000 -113.100 4 80 10 276
1984217N14264 1984 54 EP MM ISELLE 1984-08-08 03:00:00 TS 18.0504 -113.577 main 654 654 P_________P___ EP091984 18.0498 -113.573 HU 82 1 18.0522 -113.591 4 85 9 277
1984217N14264 1984 54 EP MM ISELLE 1984-08-08 06:00:00 TS 18.0997 -114.006 85 hurdat_epa main 679 679 O_________P___ hurdat_epa EP091984 18.1000 -114.000 HU 85 2 18.0989 -114.025 4 90 8 277
1984217N14264 1984 54 EP MM ISELLE 1984-08-08 09:00:00 TS 18.1490 -114.417 main 705 697 P_________P___ EP091984 18.1499 -114.415 HU 92 2 18.1462 -114.422 4 95 8 278
1984217N14264 1984 54 EP MM ISELLE 1984-08-08 12:00:00 TS 18.2000 -114.800 100 hurdat_epa main 725 725 O_________O___ hurdat_epa EP091984 18.2000 -114.800 HU 100 3 18.2000 -114.800 4 100 7 278
1984217N14264 1984 54 EP MM ISELLE 1984-08-08 15:00:00 TS 18.2456 -115.161 main 754 746 P_________P___ EP091984 18.2424 -115.150 HU 107 3 18.2553 -115.194 4 103 7 279
1984217N14264 1984 54 EP MM ISELLE 1984-08-08 18:00:00 TS 18.3049 -115.518 115 hurdat_epa main 769 769 O_________P___ hurdat_epa EP091984 18.3000 -115.500 HU 115 4 18.3196 -115.573 4 107 7 281
1984217N14264 1984 54 EP MM ISELLE 1984-08-08 21:00:00 TS 18.3885 -115.910 main 793 793 P_________P___ EP091984 18.3850 -115.900 HU 115 4 18.3991 -115.941 4 111 8 285
1984217N14264 1984 54 EP MM ISELLE 1984-08-09 00:00:00 TS 18.5000 -116.300 115 hurdat_epa main 816 816 O_________O___ hurdat_epa EP091984 18.5000 -116.300 HU 115 4 18.5000 -116.300 4 115 8 289
1984217N14264 1984 54 EP MM ISELLE 1984-08-09 03:00:00 TS 18.6358 -116.662 main 831 821 P_________P___ EP091984 18.6424 -116.658 HU 112 3 18.6162 -116.673 4 110 7 293
1984217N14264 1984 54 EP MM ISELLE 1984-08-09 06:00:00 TS 18.7887 -117.009 110 hurdat_epa main 831 831 O_________P___ hurdat_epa EP091984 18.8000 -117.000 HU 110 3 18.7550 -117.038 4 105 7 294
1984217N14264 1984 54 EP MM ISELLE 1984-08-09 09:00:00 TS 18.9359 -117.370 main 848 839 P_________P___ EP091984 18.9425 -117.365 HU 102 3 18.9162 -117.383 4 100 7 295
1984217N14264 1984 54 EP MM ISELLE 1984-08-09 12:00:00 TS 19.1000 -117.700 95 hurdat_epa main 851 849 O_________O___ hurdat_epa EP091984 19.1000 -117.700 HU 95 2 19.1000 -117.700 4 95 7 302
1984217N14264 1984 54 EP MM ISELLE 1984-08-09 15:00:00 TS 19.2854 -117.968 main 856 848 P_________P___ EP091984 19.2849 -117.965 HU 90 2 19.2868 -117.975 4 90 6 310
1984217N14264 1984 54 EP MM ISELLE 1984-08-09 18:00:00 TS 19.4993 -118.206 85 hurdat_epa main 855 855 O_________P___ hurdat_epa EP091984 19.5000 -118.200 HU 85 2 19.4970 -118.223 4 85 6 315
1984217N14264 1984 54 EP MM ISELLE 1984-08-09 21:00:00 TS 19.7403 -118.452 main 862 855 P_________P___ EP091984 19.7425 -118.450 HU 80 1 19.7337 -118.460 4 80 7 317
1984217N14264 1984 54 EP MM ISELLE 1984-08-10 00:00:00 TS 20.0000 -118.700 75 hurdat_epa main 856 856 O_________O___ hurdat_epa EP091984 20.0000 -118.700 HU 75 1 20.0000 -118.700 4 75 7 317
1984217N14264 1984 54 EP MM ISELLE 1984-08-10 03:00:00 TS 20.2416 -118.948 main 858 855 P_________P___ EP091984 20.2274 -118.943 HU 75 1 20.2840 -118.964 4 73 7 318
1984217N14264 1984 54 EP MM ISELLE 1984-08-10 06:00:00 TS 20.5243 -119.209 75 hurdat_epa main 863 857 O_________P___ hurdat_epa EP091984 20.5000 -119.200 HU 75 1 20.5974 -119.235 4 72 8 322
1984217N14264 1984 54 EP MM ISELLE 1984-08-10 09:00:00 TS 20.8924 -119.498 main 865 856 P_________P___ EP091984 20.8775 -119.492 HU 72 1 20.9371 -119.514 4 71 10 325
1984217N14264 1984 54 EP MM ISELLE 1984-08-10 12:00:00 TS 21.3000 -119.800 70 hurdat_epa main 856 842 O_________O___ hurdat_epa EP091984 21.3000 -119.800 HU 70 1 21.3000 -119.800 4 70 10 325
1984217N14264 1984 54 EP MM ISELLE 1984-08-10 15:00:00 TS 21.6966 -120.097 main 842 829 P_________P___ EP091984 21.6999 -120.100 HU 70 1 21.6864 -120.089 4 68 10 325
1984217N14264 1984 54 EP MM ISELLE 1984-08-10 18:00:00 TS 22.0981 -120.396 70 hurdat_epa main 829 816 O_________P___ hurdat_epa EP091984 22.1000 -120.400 HU 70 1 22.0923 -120.385 4 67 10 326
1984217N14264 1984 54 EP MM ISELLE 1984-08-10 21:00:00 TS 22.5004 -120.692 main 816 806 P_________P___ EP091984 22.4999 -120.693 HU 67 1 22.5020 -120.689 4 66 10 325
1984217N14264 1984 54 EP MM ISELLE 1984-08-11 00:00:00 TS 22.9000 -121.000 65 hurdat_epa main 806 799 O_________O___ hurdat_epa EP091984 22.9000 -121.000 HU 65 1 22.9000 -121.000 4 65 10 323
1984217N14264 1984 54 EP MM ISELLE 1984-08-11 03:00:00 TS 23.3054 -121.343 main 800 800 P_________P___ EP091984 23.3150 -121.350 HU 60 0 23.2765 -121.322 4 61 10 321
1984217N14264 1984 54 EP MM ISELLE 1984-08-11 06:00:00 TS 23.6843 -121.688 55 hurdat_epa main 805 801 O_________P___ hurdat_epa EP091984 23.7000 -121.700 TS 55 0 23.6374 -121.650 4 57 9 319
1984217N14264 1984 54 EP MM ISELLE 1984-08-11 09:00:00 TS 24.0061 -122.000 main 812 812 P_________P___ EP091984 24.0149 -122.008 TS 52 0 23.9796 -121.978 4 53 8 318
1984217N14264 1984 54 EP MM ISELLE 1984-08-11 12:00:00 TS 24.3000 -122.300 50 hurdat_epa main 821 821 O_________O___ hurdat_epa EP091984 24.3000 -122.300 TS 50 0 24.3000 -122.300 2 50 8 317
1984217N14264 1984 54 EP MM ISELLE 1984-08-11 15:00:00 TS 24.6057 -122.607 main 833 833 P_________P___ EP091984 24.6074 -122.600 TS 45 0 24.6006 -122.628 2 46 8 317
1984217N14264 1984 54 EP MM ISELLE 1984-08-11 18:00:00 TS 24.8950 -122.911 40 hurdat_epa main 846 846 O_________P___ hurdat_epa EP091984 24.9000 -122.900 TS 40 0 24.8800 -122.945 2 42 8 315
1984217N14264 1984 54 EP MM ISELLE 1984-08-11 21:00:00 TS 25.1598 -123.216 main 861 861 P_________P___ EP091984 25.1650 -123.208 TS 37 0 25.1444 -123.240 2 38 7 313
1984217N14264 1984 54 EP MM ISELLE 1984-08-12 00:00:00 TS 25.4000 -123.500 35 hurdat_epa main 882 882 O_________O___ hurdat_epa EP091984 25.4000 -123.500 TS 35 0 25.4000 -123.500 2 35 7 312
1984217N14264 1984 54 EP MM ISELLE 1984-08-12 03:00:00 TS 25.6074 -123.764 main 904 901 P_________P___ EP091984 25.5925 -123.780 TS 32 -1 25.6521 -123.716 2 33 6 315
1984217N14264 1984 54 EP MM ISELLE 1984-08-12 06:00:00 TS 25.8256 -123.974 30 hurdat_epa main 917 914 O_________P___ hurdat_epa EP091984 25.8000 -124.000 TD 30 -1 25.9024 -123.897 2 32 6 328
1984217N14264 1984 54 EP MM ISELLE 1984-08-12 09:00:00 TS 26.0960 -124.109 main 917 910 P_________P___ EP091984 26.0775 -124.127 TD 30 -1 26.1515 -124.054 2 31 6 341
1984217N14264 1984 54 EP MM ISELLE 1984-08-12 12:00:00 TS 26.4000 -124.200 30 hurdat_epa main 910 O_________O___ hurdat_epa EP091984 26.4000 -124.200 TD 30 -1 26.4000 -124.200 1 30 6 345

IBTrACS Databaseについて

本データベースは、米国NOAAが公開する1842年以降の世界の熱帯低気圧のベストトラックデータアーカイブInternational Best Track Archive for Climate Stewardship (IBTrACS)を、ウェブで閲覧しやすい形式に変換したものです。

最終更新日:2021-10-08